createdAt,value
2018-05-03T00:02:04.924Z,97388.91
2018-05-03T00:04:33.069Z,97399.94
2018-05-03T00:07:01.319Z,97393.67
2018-05-03T00:09:29.555Z,97388.34
2018-05-03T00:11:57.814Z,97410.48
2018-05-03T00:14:26.074Z,97393.55
2018-05-03T00:16:55.088Z,97387.70
2018-05-03T00:19:23.326Z,97382.23
2018-05-03T00:21:51.675Z,97372.33
2018-05-03T00:24:19.911Z,97381.01
2018-05-03T00:26:48.227Z,97389.38
2018-05-03T00:29:17.607Z,97393.38
2018-05-03T00:31:45.930Z,97400.84
2018-05-03T00:34:15.170Z,97386.19
2018-05-03T00:36:43.415Z,97388.88
2018-05-03T00:39:11.663Z,97394.98
2018-05-03T00:41:39.916Z,97396.97
2018-05-03T00:44:09.014Z,97397.91
2018-05-03T00:46:38.038Z,97402.33
2018-05-03T00:49:06.279Z,97399.89
2018-05-03T00:51:34.607Z,97396.42
2018-05-03T00:54:03.618Z,97391.74
2018-05-03T00:56:32.626Z,97382.02
2018-05-03T00:59:01.648Z,97391.22
2018-05-03T01:01:29.875Z,97394.00
2018-05-03T01:03:58.198Z,97392.70
2018-05-03T01:06:27.203Z,97391.92
2018-05-03T01:08:56.222Z,97384.45
2018-05-03T01:11:25.225Z,97385.66
2018-05-03T01:13:54.244Z,97392.95
2018-05-03T01:16:22.519Z,97395.37
2018-05-03T01:18:52.291Z,97387.24
2018-05-03T01:21:20.532Z,97394.58
2018-05-03T01:23:49.547Z,97396.97
2018-05-03T01:26:17.789Z,97396.32
2018-05-03T01:28:46.036Z,97390.19
2018-05-03T01:31:14.274Z,97396.07
2018-05-03T01:33:42.593Z,97396.84
2018-05-03T01:36:27.523Z,97396.33
2018-05-03T01:38:55.802Z,97397.16
2018-05-03T01:41:24.040Z,97390.18
2018-05-03T01:43:52.333Z,97397.09
2018-05-03T01:46:21.350Z,97403.64
2018-05-03T01:48:49.625Z,97399.86
2018-05-03T01:51:18.639Z,97403.45
2018-05-03T01:53:47.647Z,97405.72
2018-05-03T01:56:15.945Z,97409.72
2018-05-03T01:58:45.039Z,97409.06
2018-05-03T02:01:14.075Z,97409.84
2018-05-03T02:03:42.347Z,97413.87
2018-05-03T02:06:11.731Z,97408.20
2018-05-03T02:08:40.050Z,97412.03
2018-05-03T02:11:09.053Z,97414.05
2018-05-03T02:13:38.076Z,97413.77
2018-05-03T02:16:06.310Z,97413.33
2018-05-03T02:18:34.563Z,97409.45
2018-05-03T02:21:02.854Z,97415.92
2018-05-03T02:23:31.099Z,97420.40
2018-05-03T02:25:59.399Z,97415.59
2018-05-03T02:28:28.430Z,97415.31
2018-05-03T02:30:56.684Z,97419.06
2018-05-03T02:33:24.919Z,97416.72
2018-05-03T02:35:53.180Z,97427.70
2018-05-03T02:38:22.171Z,97422.77
2018-05-03T02:40:50.675Z,97420.63
2018-05-03T02:43:19.688Z,97418.09
2018-05-03T02:45:48.785Z,97415.83
2018-05-03T02:48:17.795Z,97416.52
2018-05-03T02:50:46.825Z,97411.75
2018-05-03T02:53:15.059Z,97406.30
2018-05-03T02:55:43.324Z,97409.34
2018-05-03T02:58:29.083Z,97401.41
2018-05-03T03:01:20.846Z,97400.85
2018-05-03T03:04:12.579Z,97403.92
2018-05-03T03:14:00.072Z,97399.33
2018-05-03T03:16:51.723Z,97398.55
2018-05-03T03:23:04.897Z,97411.27
2018-05-03T03:29:30.371Z,97391.17
2018-05-03T03:32:16.371Z,97389.23
2018-05-03T03:34:44.599Z,97391.98
2018-05-03T03:37:30.869Z,97396.42
2018-05-03T03:40:22.344Z,97409.13
2018-05-03T03:43:06.543Z,97411.70
2018-05-03T03:45:35.559Z,97415.05
2018-05-03T03:48:03.795Z,97415.17
2018-05-03T03:50:32.053Z,97421.27
2018-05-03T03:53:00.358Z,97422.14
2018-05-03T03:55:29.371Z,97426.27
2018-05-03T03:57:58.358Z,97425.98
2018-05-03T04:00:26.644Z,97428.40
2018-05-03T04:02:54.909Z,97416.10
2018-05-03T04:05:23.141Z,97414.73
2018-05-03T04:07:52.164Z,97420.09
2018-05-03T04:10:21.554Z,97421.05
2018-05-03T04:12:50.591Z,97423.91
2018-05-03T04:15:18.827Z,97418.83
2018-05-03T04:18:04.764Z,97423.50
2018-05-03T04:21:03.210Z,97439.50
2018-05-03T04:23:49.944Z,97444.42
2018-05-03T04:26:18.199Z,97443.50
2018-05-03T04:28:46.430Z,97450.06
2018-05-03T04:31:14.685Z,97443.30
2018-05-03T04:33:42.924Z,97450.93
2018-05-03T04:36:11.187Z,97451.86
2018-05-03T04:38:39.437Z,97456.41
2018-05-03T04:41:07.731Z,97458.42
2018-05-03T04:43:36.018Z,97468.14
2018-05-03T04:46:04.244Z,97461.00
2018-05-03T04:48:32.487Z,97458.64
2018-05-03T04:51:00.722Z,97459.44
2018-05-03T04:53:28.971Z,97458.02
2018-05-03T04:55:57.206Z,97466.81
2018-05-03T04:58:25.461Z,97473.34
2018-05-03T05:00:53.699Z,97480.56
2018-05-03T05:03:22.026Z,97480.56
2018-05-03T05:05:50.168Z,97468.73
2018-05-03T05:08:19.253Z,97472.42
2018-05-03T05:10:47.487Z,97465.38
2018-05-03T05:13:16.503Z,97473.00
2018-05-03T05:15:44.729Z,97487.52
2018-05-03T05:18:13.024Z,97486.07
2018-05-03T05:20:41.263Z,97484.01
2018-05-03T05:23:10.295Z,97488.30
2018-05-03T05:25:38.523Z,97502.68
2018-05-03T05:28:06.776Z,97496.60
2018-05-03T05:30:35.028Z,97496.48
2018-05-03T05:33:03.259Z,97493.05
2018-05-03T05:35:31.499Z,97496.78
2018-05-03T05:38:00.510Z,97502.83
2018-05-03T05:40:29.511Z,97509.73
2018-05-03T05:42:59.282Z,97504.14
2018-05-03T05:45:27.527Z,97508.84
2018-05-03T05:47:57.142Z,97509.92
2018-05-03T05:50:25.377Z,97513.52
2018-05-03T05:52:53.631Z,97515.92
2018-05-03T05:55:22.648Z,97527.01
2018-05-03T05:57:51.657Z,97526.59
2018-05-03T06:00:19.903Z,97529.80
2018-05-03T06:02:48.142Z,97532.87
2018-05-03T06:05:16.395Z,97540.49
2018-05-03T06:07:44.626Z,97542.88
2018-05-03T06:10:13.000Z,97547.82
2018-05-03T06:12:41.135Z,97549.02
2018-05-03T06:15:09.920Z,97544.91
2018-05-03T06:17:38.161Z,97550.11
2018-05-03T06:20:07.180Z,97545.70
2018-05-03T06:22:36.187Z,97547.59
2018-05-03T06:25:04.433Z,97543.42
2018-05-03T06:27:32.670Z,97548.53
2018-05-03T06:30:00.930Z,97548.29
2018-05-03T06:32:29.927Z,97548.70
2018-05-03T06:34:58.258Z,97556.43
2018-05-03T06:37:27.250Z,97566.88
2018-05-03T06:39:56.276Z,97573.29
2018-05-03T06:42:24.506Z,97568.75
2018-05-03T06:44:52.760Z,97576.87
2018-05-03T06:47:20.994Z,97572.48
2018-05-03T06:49:49.260Z,97571.69
2018-05-03T06:52:17.495Z,97572.48
2018-05-03T06:54:46.515Z,97573.13
2018-05-03T06:57:14.746Z,97578.75
2018-05-03T06:59:43.008Z,97579.80
2018-05-03T07:02:11.247Z,97586.08
2018-05-03T07:04:41.096Z,97589.69
2018-05-03T07:07:10.095Z,97590.12
2018-05-03T07:09:39.104Z,97581.20
2018-05-03T07:12:08.112Z,97590.08
2018-05-03T07:14:37.879Z,97592.36
2018-05-03T07:17:06.123Z,97592.91
2018-05-03T07:19:35.138Z,97592.84
2018-05-03T07:22:03.467Z,97598.80
2018-05-03T07:24:32.398Z,97596.78
2018-05-03T07:27:00.632Z,97595.98
2018-05-03T07:29:28.937Z,97595.50
2018-05-03T07:31:57.114Z,97600.00
2018-05-03T07:34:25.352Z,97598.94
2018-05-03T07:36:53.606Z,97601.45
2018-05-03T07:39:21.839Z,97593.57
2018-05-03T07:41:50.096Z,97595.72
2018-05-03T07:44:18.334Z,97594.81
2018-05-03T07:46:47.341Z,97596.20
2018-05-03T07:49:16.344Z,97595.38
2018-05-03T07:51:45.366Z,97598.70
2018-05-03T07:54:14.372Z,97596.88
2018-05-03T07:56:43.482Z,97602.48
2018-05-03T07:59:12.575Z,97612.18
2018-05-03T08:01:41.596Z,97608.94
2018-05-03T08:04:09.841Z,97614.84
2018-05-03T08:06:38.151Z,97617.66
2018-05-03T08:09:07.159Z,97619.28
2018-05-03T08:11:36.183Z,97628.71
2018-05-03T08:14:04.419Z,97625.61
2018-05-03T08:16:32.668Z,97626.02
2018-05-03T08:19:00.907Z,97623.66
2018-05-03T08:21:29.171Z,97632.16
2018-05-03T08:23:57.406Z,97623.77
2018-05-03T08:26:26.540Z,97623.37
2018-05-03T08:28:54.767Z,97622.69
2018-05-03T08:31:23.023Z,97628.45
2018-05-03T08:33:51.255Z,97627.23
2018-05-03T08:36:19.511Z,97633.56
2018-05-03T08:38:47.748Z,97639.44
2018-05-03T08:41:16.020Z,97635.92
2018-05-03T08:43:44.256Z,97641.72
2018-05-03T08:46:12.499Z,97649.10
2018-05-03T08:48:40.758Z,97645.49
2018-05-03T08:51:08.987Z,97651.38
2018-05-03T08:53:37.227Z,97646.85
2018-05-03T08:56:05.461Z,97647.98
2018-05-03T08:58:33.703Z,97662.06
2018-05-03T09:01:01.945Z,97661.24
2018-05-03T09:03:30.200Z,97664.13
2018-05-03T09:05:58.446Z,97662.31
2018-05-03T09:08:28.212Z,97670.28
2018-05-03T09:10:56.452Z,97667.73
2018-05-03T09:13:25.463Z,97663.13
2018-05-03T09:15:53.718Z,97665.73
2018-05-03T09:18:22.037Z,97673.28
2018-05-03T09:20:51.043Z,97667.58
2018-05-03T09:23:20.071Z,97677.73
2018-05-03T09:25:48.337Z,97673.64
2018-05-03T09:28:17.379Z,97679.33
2018-05-03T09:30:45.624Z,97671.80
2018-05-03T09:33:13.906Z,97670.85
2018-05-03T09:35:42.235Z,97670.70
2018-05-03T09:38:10.499Z,97667.61
2018-05-03T09:40:39.515Z,97683.23
2018-05-03T09:43:07.783Z,97681.09
2018-05-03T09:45:36.804Z,97683.37
2018-05-03T09:48:05.855Z,97687.89
2018-05-03T09:50:34.872Z,97685.08
2018-05-03T09:53:03.146Z,97686.58
2018-05-03T09:55:31.407Z,97683.53
2018-05-03T09:57:59.683Z,97679.08
2018-05-03T10:00:28.700Z,97673.11
2018-05-03T10:02:57.805Z,97683.46
2018-05-03T10:05:26.851Z,97681.06
2018-05-03T10:07:55.107Z,97685.58
2018-05-03T10:10:24.133Z,97693.55
2018-05-03T10:12:52.403Z,97695.25
2018-05-03T10:15:21.430Z,97701.02
2018-05-03T10:17:49.691Z,97693.70
2018-05-03T10:20:17.968Z,97699.14
2018-05-03T10:22:46.980Z,97701.09
2018-05-03T10:25:15.995Z,97699.19
2018-05-03T10:27:45.011Z,97692.28
2018-05-03T10:30:13.290Z,97694.55
2018-05-03T10:32:42.306Z,97696.59
2018-05-03T10:35:10.594Z,97700.61
2018-05-03T10:37:38.979Z,97701.28
2018-05-03T10:40:07.247Z,97709.17
2018-05-03T10:42:36.284Z,97705.48
2018-05-03T10:45:04.540Z,97711.78
2018-05-03T10:47:32.811Z,97700.94
2018-05-03T10:50:01.087Z,97699.52
2018-05-03T10:52:29.379Z,97699.72
2018-05-03T10:54:57.637Z,97693.73
2018-05-03T10:57:25.909Z,97697.09
2018-05-03T10:59:54.944Z,97697.13
2018-05-03T11:02:23.195Z,97695.90
2018-05-03T11:04:52.271Z,97696.20
2018-05-03T11:07:22.063Z,97696.27
2018-05-03T11:09:50.354Z,97689.85
2018-05-03T11:12:18.627Z,97685.08
2018-05-03T11:14:46.896Z,97684.45
2018-05-03T11:17:15.909Z,97682.91
2018-05-03T11:19:44.929Z,97689.13
2018-05-03T11:22:13.173Z,97683.44
2018-05-03T11:24:41.444Z,97684.31
2018-05-03T11:27:09.702Z,97686.89
2018-05-03T11:29:37.972Z,97686.80
2018-05-03T11:32:06.974Z,97683.25
2018-05-03T11:34:35.222Z,97688.02
2018-05-03T11:37:03.515Z,97692.52
2018-05-03T11:39:31.755Z,97685.13
2018-05-03T11:41:59.987Z,97688.95
2018-05-03T11:44:28.256Z,97695.68
2018-05-03T11:46:56.528Z,97693.11
2018-05-03T11:49:24.771Z,97688.92
2018-05-03T11:51:53.869Z,97689.17
2018-05-03T11:54:22.134Z,97687.58
2018-05-03T11:56:50.399Z,97678.66
2018-05-03T12:02:30.869Z,97677.03
2018-05-03T12:04:59.466Z,97679.20
2018-05-03T12:07:27.738Z,97673.81
2018-05-03T12:09:56.046Z,97673.56
2018-05-03T12:12:24.304Z,97666.67
2018-05-03T12:14:52.554Z,97664.92
2018-05-03T12:17:20.835Z,97663.26
2018-05-03T12:19:49.084Z,97672.07
2018-05-03T12:22:17.342Z,97670.15
2018-05-03T12:24:46.355Z,97665.02
2018-05-03T12:27:15.380Z,97673.24
2018-05-03T12:29:43.675Z,97673.70
2018-05-03T12:32:11.940Z,97661.77
2018-05-03T12:34:40.951Z,97665.79
2018-05-03T12:37:10.043Z,97653.03
2018-05-03T12:39:39.074Z,97655.78
2018-05-03T12:42:08.201Z,97651.22
2018-05-03T12:44:36.480Z,97657.69
2018-05-03T12:47:04.736Z,97652.41
2018-05-03T12:49:33.739Z,97652.69
2018-05-03T12:52:02.007Z,97656.98
2018-05-03T12:54:30.259Z,97646.25
2018-05-03T12:56:58.599Z,97659.23
2018-05-03T12:59:26.906Z,97645.28
2018-05-03T13:01:55.263Z,97645.30
2018-05-03T13:04:23.537Z,97649.45
2018-05-03T13:06:51.810Z,97641.88
2018-05-03T13:09:20.074Z,97662.58
2018-05-03T13:11:48.388Z,97646.06
2018-05-03T13:14:16.706Z,97643.76
2018-05-03T13:16:44.895Z,97632.20
2018-05-03T13:19:14.501Z,97639.45
2018-05-03T13:21:43.531Z,97644.97
2018-05-03T13:24:11.768Z,97646.59
2018-05-03T13:26:40.075Z,97636.89
2018-05-03T13:29:08.318Z,97644.25
2018-05-03T13:31:36.566Z,97644.91
2018-05-03T13:34:05.592Z,97643.73
2018-05-03T13:36:33.849Z,97639.77
2018-05-03T13:39:02.136Z,97637.20
2018-05-03T13:41:30.447Z,97637.15
2018-05-03T13:43:59.470Z,97646.94
2018-05-03T13:46:27.714Z,97638.67
2018-05-03T13:48:55.978Z,97638.45
2018-05-03T13:51:24.235Z,97643.81
2018-05-03T13:53:52.515Z,97644.22
2018-05-03T13:56:21.511Z,97648.89
2018-05-03T13:58:49.770Z,97637.14
2018-05-03T14:01:18.023Z,97638.72
2018-05-03T14:03:46.280Z,97647.02
2018-05-03T14:06:15.284Z,97640.09
2018-05-03T14:08:44.330Z,97638.84
2018-05-03T14:11:12.577Z,97641.78
2018-05-03T14:13:41.596Z,97630.43
2018-05-03T14:16:09.839Z,97639.41
2018-05-03T14:18:38.191Z,97631.60
2018-05-03T14:21:06.439Z,97629.80
2018-05-03T14:23:34.687Z,97619.77
2018-05-03T14:26:02.922Z,97620.73
2018-05-03T14:28:31.943Z,97619.12
2018-05-03T14:31:00.186Z,97618.70
2018-05-03T14:33:28.447Z,97619.08
2018-05-03T14:35:56.668Z,97624.55
2018-05-03T14:38:24.947Z,97618.03
2018-05-03T14:40:54.684Z,97618.04
2018-05-03T14:43:22.961Z,97614.24
2018-05-03T14:45:51.206Z,97618.59
2018-05-03T14:48:19.449Z,97629.80
2018-05-03T14:50:47.703Z,97626.83
2018-05-03T14:53:15.992Z,97621.52
2018-05-03T14:55:44.223Z,97634.77
2018-05-03T14:58:12.555Z,97634.91
2018-05-03T15:00:40.786Z,97641.07
2018-05-03T15:03:09.024Z,97638.92
2018-05-03T15:05:37.273Z,97634.97
2018-05-03T15:08:05.511Z,97640.97
2018-05-03T15:10:33.777Z,97635.31
2018-05-03T15:13:02.003Z,97630.77
2018-05-03T15:15:30.272Z,97629.13
2018-05-03T15:17:58.512Z,97630.83
2018-05-03T15:20:26.775Z,97641.16
2018-05-03T15:22:55.786Z,97637.89
2018-05-03T15:25:24.811Z,97634.16
2018-05-03T15:27:53.039Z,97635.86
2018-05-03T15:30:21.296Z,97642.27
2018-05-03T15:32:49.531Z,97639.92
2018-05-03T15:35:17.797Z,97640.87
2018-05-03T15:37:46.039Z,97632.91
2018-05-03T15:40:15.058Z,97627.72
2018-05-03T15:42:43.311Z,97635.64
2018-05-03T15:45:11.569Z,97640.22
2018-05-03T15:47:39.798Z,97630.07
2018-05-03T15:50:08.827Z,97628.27
2018-05-03T15:52:37.062Z,97637.69
2018-05-03T15:55:05.328Z,97636.34
2018-05-03T15:57:33.575Z,97636.69
2018-05-03T16:00:01.832Z,97638.48
2018-05-03T16:02:30.079Z,97623.22
2018-05-03T16:04:58.333Z,97623.59
2018-05-03T16:07:27.353Z,97626.31
2018-05-03T16:09:56.958Z,97624.03
2018-05-03T16:12:25.961Z,97619.73
2018-05-03T16:14:55.355Z,97623.56
2018-05-03T16:17:23.590Z,97622.38
2018-05-03T16:19:51.840Z,97613.80
2018-05-03T16:22:21.427Z,97633.05
2018-05-03T16:24:50.459Z,97618.89
2018-05-03T16:27:18.772Z,97620.02
2018-05-03T16:29:47.029Z,97615.63
2018-05-03T16:32:15.254Z,97612.93
2018-05-03T16:34:43.532Z,97619.17
2018-05-03T16:37:12.523Z,97621.53
2018-05-03T16:39:40.795Z,97622.99
2018-05-03T16:42:09.088Z,97621.15
2018-05-03T16:44:37.313Z,97623.06
2018-05-03T16:47:05.568Z,97626.19
2018-05-03T16:49:33.825Z,97630.66
2018-05-03T16:52:02.838Z,97635.64
2018-05-03T16:54:31.840Z,97634.23
2018-05-03T16:57:00.896Z,97634.65
2018-05-03T16:59:29.134Z,97632.48
2018-05-03T17:01:58.158Z,97628.27
2018-05-03T17:04:26.396Z,97625.73
2018-05-03T17:06:54.655Z,97626.02
2018-05-03T17:09:22.883Z,97633.64
2018-05-03T17:11:51.134Z,97632.25
2018-05-03T17:14:19.372Z,97633.15
2018-05-03T17:16:47.688Z,97643.41
2018-05-03T17:19:15.945Z,97643.78
2018-05-03T17:21:44.213Z,97654.16
2018-05-03T17:24:12.456Z,97647.14
2018-05-03T17:26:40.720Z,97650.73
2018-05-03T17:29:09.731Z,97660.41
2018-05-03T17:31:38.756Z,97666.94
2018-05-03T17:34:06.991Z,97657.88
2018-05-03T17:36:35.246Z,97662.92
2018-05-03T17:39:03.558Z,97658.83
2018-05-03T17:41:31.731Z,97664.04
2018-05-03T17:43:59.964Z,97664.27
2018-05-03T17:46:29.917Z,97660.10
2018-05-03T17:48:58.084Z,97666.82
2018-05-03T17:51:26.417Z,97667.08
2018-05-03T17:53:54.675Z,97669.97
2018-05-03T17:56:23.738Z,97670.46
2018-05-03T17:58:51.970Z,97680.08
2018-05-03T18:01:20.975Z,97685.41
2018-05-03T18:03:49.999Z,97684.53
2018-05-03T18:06:18.243Z,97689.23
2018-05-03T18:08:46.507Z,97689.77
2018-05-03T18:11:14.747Z,97690.53
2018-05-03T18:13:43.768Z,97687.12
2018-05-03T18:16:12.120Z,97700.33
2018-05-03T18:18:41.071Z,97704.65
2018-05-03T18:21:09.327Z,97708.12
2018-05-03T18:23:37.611Z,97712.26
2018-05-03T18:26:05.878Z,97708.45
2018-05-03T18:28:34.103Z,97716.30
2018-05-03T18:31:03.099Z,97714.45
2018-05-03T18:33:31.366Z,97714.83
2018-05-03T18:35:59.599Z,97720.28
2018-05-03T18:38:27.871Z,97727.00
2018-05-03T18:40:56.883Z,97729.09
2018-05-03T18:43:25.915Z,97744.10
2018-05-03T18:45:54.137Z,97742.56
2018-05-03T18:48:22.390Z,97740.18
2018-05-03T18:50:50.628Z,97749.23
2018-05-03T18:53:18.882Z,97747.02
2018-05-03T18:55:47.124Z,97750.67
2018-05-03T18:58:16.218Z,97751.77
2018-05-03T19:00:45.148Z,97752.08
2018-05-03T19:03:14.225Z,97759.85
2018-05-03T19:05:42.460Z,97759.98
2018-05-03T19:08:11.497Z,97764.95
2018-05-03T19:10:39.739Z,97762.00
2018-05-03T19:13:08.854Z,97768.17
2018-05-03T19:15:36.991Z,97771.42
2018-05-03T19:18:05.248Z,97776.25
2018-05-03T19:20:33.511Z,97784.84
2018-05-03T19:23:01.739Z,97777.19
2018-05-03T19:25:29.976Z,97784.45
2018-05-03T19:27:58.213Z,97784.88
2018-05-03T19:30:26.475Z,97784.34
2018-05-03T19:32:54.729Z,97791.97
2018-05-03T19:35:23.032Z,97796.64
2018-05-03T19:37:51.231Z,97792.80
2018-05-03T19:40:21.097Z,97799.22
2018-05-03T19:42:49.319Z,97801.06
2018-05-03T19:45:17.599Z,97803.78
2018-05-03T19:47:45.896Z,97804.05
2018-05-03T19:50:14.129Z,97806.98
2018-05-03T19:52:42.327Z,97807.02
2018-05-03T19:55:10.581Z,97810.77
2018-05-03T19:57:39.597Z,97816.95
2018-05-03T20:00:08.619Z,97818.96
2018-05-03T20:02:36.859Z,97818.83
2018-05-03T20:05:05.122Z,97821.53
2018-05-03T20:07:33.360Z,97816.14
2018-05-03T20:10:02.388Z,97818.16
2018-05-03T20:12:30.621Z,97824.48
2018-05-03T20:14:58.875Z,97827.98
2018-05-03T20:17:27.107Z,97828.92
2018-05-03T20:19:55.359Z,97826.09
2018-05-03T20:22:23.595Z,97828.66
2018-05-03T20:24:51.861Z,97823.05
2018-05-03T20:27:20.113Z,97827.74
2018-05-03T20:29:48.432Z,97826.27
2018-05-03T20:32:16.674Z,97829.47
2018-05-03T20:34:45.700Z,97832.95
2018-05-03T20:37:13.950Z,97821.17
2018-05-03T20:39:42.282Z,97833.09
2018-05-03T20:42:11.271Z,97827.19
2018-05-03T20:44:40.271Z,97822.76
2018-05-03T20:47:08.527Z,97826.39
2018-05-03T20:49:36.766Z,97822.52
2018-05-03T20:52:05.090Z,97817.44
2018-05-03T20:54:34.035Z,97817.72
2018-05-03T20:57:03.084Z,97820.19
2018-05-03T20:59:31.331Z,97821.91
2018-05-03T21:02:00.348Z,97817.81
2018-05-03T21:04:29.344Z,97821.56
2018-05-03T21:06:58.458Z,97815.68
2018-05-03T21:09:26.604Z,97822.40
2018-05-03T21:11:54.857Z,97822.38
2018-05-03T21:14:23.099Z,97815.05
2018-05-03T21:16:51.350Z,97818.52
2018-05-03T21:19:19.599Z,97822.70
2018-05-03T21:21:48.617Z,97828.71
2018-05-03T21:24:16.857Z,97827.91
2018-05-03T21:26:45.143Z,97825.75
2018-05-03T21:29:13.392Z,97820.53
2018-05-03T21:31:41.642Z,97820.67
2018-05-03T21:34:09.882Z,97827.52
2018-05-03T21:36:38.125Z,97824.44
2018-05-03T21:39:07.123Z,97825.41
2018-05-03T21:41:35.412Z,97833.30
2018-05-03T21:44:03.654Z,97830.49
2018-05-03T21:46:31.924Z,97836.39
2018-05-03T21:49:00.160Z,97833.19
2018-05-03T21:51:28.485Z,97838.67
2018-05-03T21:53:56.655Z,97838.00
2018-05-03T21:56:25.682Z,97845.64
2018-05-03T21:58:54.683Z,97844.69
2018-05-03T22:01:23.784Z,97849.14
2018-05-03T22:03:52.835Z,97845.91
2018-05-03T22:06:21.089Z,97842.30
2018-05-03T22:08:50.083Z,97843.89
2018-05-03T22:11:19.120Z,97850.19
2018-05-03T22:13:47.417Z,97852.34
2018-05-03T22:16:15.664Z,97854.08
2018-05-03T22:18:43.922Z,97854.91
2018-05-03T22:21:12.148Z,97855.55
2018-05-03T22:23:41.167Z,97857.84
2018-05-03T22:26:10.171Z,97864.92
2018-05-03T22:28:39.559Z,97872.84
2018-05-03T22:31:07.794Z,97870.55
2018-05-03T22:33:36.042Z,97872.28
2018-05-03T22:36:04.294Z,97872.52
2018-05-03T22:38:32.576Z,97870.38
2018-05-03T22:41:00.807Z,97873.73
2018-05-03T22:43:29.071Z,97873.98
2018-05-03T22:45:57.324Z,97869.70
2018-05-03T22:48:26.328Z,97875.20
2018-05-03T22:50:54.576Z,97877.59
2018-05-03T22:53:22.818Z,97880.13
2018-05-03T22:55:51.055Z,97888.30
2018-05-03T22:58:19.316Z,97884.02
2018-05-03T23:00:47.556Z,97891.78
2018-05-03T23:03:16.946Z,97888.55
2018-05-03T23:05:45.178Z,97891.77
2018-05-03T23:08:13.423Z,97884.28
2018-05-03T23:10:41.659Z,97888.84
2018-05-03T23:13:09.902Z,97883.72
2018-05-03T23:15:38.159Z,97885.89
2018-05-03T23:18:06.398Z,97888.42
2018-05-03T23:20:35.778Z,97877.84
2018-05-03T23:23:04.041Z,97868.61
2018-05-03T23:25:32.276Z,97863.38
2018-05-03T23:28:00.518Z,97862.99
2018-05-03T23:30:28.801Z,97863.25
2018-05-03T23:32:57.782Z,97860.58
2018-05-03T23:35:26.040Z,97862.17
2018-05-03T23:37:54.274Z,97861.50
2018-05-03T23:40:22.516Z,97855.47
2018-05-03T23:42:50.766Z,97855.73
2018-05-03T23:45:19.031Z,97855.87
2018-05-03T23:47:47.289Z,97856.38
2018-05-03T23:50:15.537Z,97868.14
2018-05-03T23:52:43.827Z,97861.84
2018-05-03T23:55:12.075Z,97865.83
2018-05-03T23:57:41.075Z,97860.59
